createdAt,value
2022-11-24T00:01:23.755Z,5.26
2022-11-24T00:04:14.419Z,5.25
2022-11-24T00:06:41.726Z,5.24
2022-11-24T00:09:10.819Z,5.27
2022-11-24T00:11:41.068Z,5.15
2022-11-24T00:14:08.505Z,5.23
2022-11-24T00:16:37.443Z,5.22
2022-11-24T00:19:09.308Z,5.23
2022-11-24T00:21:38.156Z,5.23
2022-11-24T00:24:06.408Z,5.19
2022-11-24T00:26:35.156Z,5.23
2022-11-24T00:29:05.861Z,5.24
2022-11-24T00:31:36.905Z,5.26
2022-11-24T00:34:07.376Z,5.20
2022-11-24T00:36:36.013Z,5.23
2022-11-24T00:39:11.140Z,5.19
2022-11-24T00:41:38.967Z,5.08
2022-11-24T00:44:06.647Z,5.01
2022-11-24T00:46:34.926Z,5.00
2022-11-24T00:49:02.560Z,5.00
2022-11-24T00:51:30.539Z,5.01
2022-11-24T00:54:01.836Z,4.97
2022-11-24T00:56:30.376Z,4.83
2022-11-24T00:58:58.066Z,4.91
2022-11-24T01:01:27.608Z,4.96
2022-11-24T01:03:55.868Z,4.93
2022-11-24T01:06:26.045Z,4.92
2022-11-24T01:08:54.472Z,4.87
2022-11-24T01:11:51.599Z,4.89
2022-11-24T01:14:22.407Z,4.81
2022-11-24T01:16:49.944Z,4.89
2022-11-24T01:19:17.947Z,4.93
2022-11-24T01:21:45.951Z,4.82
2022-11-24T01:24:13.642Z,4.74
2022-11-24T01:26:41.412Z,4.70
2022-11-24T01:29:10.613Z,4.61
2022-11-24T01:31:38.506Z,4.57
2022-11-24T01:34:06.449Z,4.50
2022-11-24T01:36:34.086Z,4.47
2022-11-24T01:39:01.512Z,4.63
2022-11-24T01:41:28.799Z,4.61
2022-11-24T01:43:56.752Z,4.62
2022-11-24T01:46:43.807Z,4.55
2022-11-24T01:49:18.077Z,4.60
2022-11-24T01:51:53.269Z,4.65
2022-11-24T01:54:25.392Z,4.51
2022-11-24T01:56:56.264Z,4.59
2022-11-24T01:59:26.661Z,4.67
2022-11-24T02:01:56.186Z,4.70
2022-11-24T02:04:29.547Z,4.74
2022-11-24T02:07:00.528Z,4.74
2022-11-24T02:09:34.395Z,4.75
2022-11-24T02:12:02.543Z,4.79
2022-11-24T02:14:30.059Z,4.75
2022-11-24T02:16:57.442Z,4.73
2022-11-24T02:19:59.246Z,4.54
2022-11-24T02:22:44.521Z,4.47
2022-11-24T02:25:24.069Z,4.43
2022-11-24T02:27:54.252Z,4.38
2022-11-24T02:30:22.536Z,4.44
2022-11-24T02:32:50.283Z,4.41
2022-11-24T02:35:17.838Z,4.37
2022-11-24T02:37:45.254Z,4.44
2022-11-24T02:40:16.782Z,4.31
2022-11-24T02:42:47.236Z,4.44
2022-11-24T02:45:16.547Z,4.23
2022-11-24T02:47:44.544Z,4.27
2022-11-24T02:50:12.200Z,4.19
2022-11-24T02:52:39.546Z,4.17
2022-11-24T02:55:07.176Z,4.16
2022-11-24T02:57:34.781Z,4.18
2022-11-24T03:00:02.329Z,4.24
2022-11-24T03:02:30.712Z,4.18
2022-11-24T03:05:00.837Z,4.15
2022-11-24T03:07:28.244Z,4.09
2022-11-24T03:09:55.678Z,4.02
2022-11-24T03:12:23.003Z,4.08
2022-11-24T03:14:50.417Z,4.08
2022-11-24T03:17:17.782Z,3.90
2022-11-24T03:19:45.249Z,4.11
2022-11-24T03:22:13.615Z,4.08
2022-11-24T03:24:41.110Z,4.04
2022-11-24T03:27:08.533Z,4.03
2022-11-24T03:29:35.935Z,4.03
2022-11-24T03:32:03.329Z,3.95
2022-11-24T03:34:30.843Z,3.98
2022-11-24T03:36:58.505Z,3.97
2022-11-24T03:39:26.075Z,3.96
2022-11-24T03:41:53.661Z,3.97
2022-11-24T03:44:21.157Z,3.89
2022-11-24T03:46:48.606Z,3.82
2022-11-24T03:49:16.073Z,3.82
2022-11-24T03:51:43.430Z,3.84
2022-11-24T03:54:10.809Z,3.75
2022-11-24T03:56:38.225Z,3.65
2022-11-24T03:59:05.726Z,3.82
2022-11-24T04:01:33.256Z,3.81
2022-11-24T04:04:00.915Z,3.89
2022-11-24T04:06:28.370Z,3.86
2022-11-24T04:08:58.489Z,3.89
2022-11-24T04:11:44.555Z,3.81
2022-11-24T04:14:13.703Z,3.93
2022-11-24T04:16:44.385Z,3.91
2022-11-24T04:19:12.640Z,3.88
2022-11-24T04:21:40.011Z,3.88
2022-11-24T04:24:07.510Z,3.91
2022-11-24T04:26:35.009Z,3.89
2022-11-24T04:29:02.556Z,3.87
2022-11-24T04:31:30.116Z,3.84
2022-11-24T04:33:57.726Z,3.78
2022-11-24T04:36:25.173Z,3.73
2022-11-24T04:39:25.474Z,3.74
2022-11-24T04:41:43.740Z,3.71
2022-11-24T04:44:11.149Z,3.81
2022-11-24T04:46:38.652Z,3.76
2022-11-24T04:49:06.317Z,3.79
2022-11-24T04:51:33.665Z,3.84
2022-11-24T04:54:01.096Z,3.92
2022-11-24T04:56:28.587Z,4.01
2022-11-24T04:58:55.952Z,3.96
2022-11-24T05:01:26.527Z,3.94
2022-11-24T05:03:55.118Z,3.88
2022-11-24T05:06:23.506Z,3.93
2022-11-24T05:08:52.533Z,3.84
2022-11-24T05:11:19.986Z,3.88
2022-11-24T05:13:47.412Z,3.74
2022-11-24T05:16:14.829Z,3.85
2022-11-24T05:18:42.217Z,3.92
2022-11-24T05:21:09.653Z,3.83
2022-11-24T05:23:37.196Z,3.85
2022-11-24T05:26:04.837Z,3.74
2022-11-24T05:28:34.945Z,3.66
2022-11-24T05:31:03.289Z,3.66
2022-11-24T05:33:33.307Z,3.63
2022-11-24T05:36:02.776Z,3.54
2022-11-24T05:38:30.652Z,3.45
2022-11-24T05:41:06.035Z,3.40
2022-11-24T05:43:33.673Z,3.37
2022-11-24T05:46:02.004Z,3.47
2022-11-24T05:48:29.490Z,3.51
2022-11-24T05:50:58.034Z,3.48
2022-11-24T05:53:26.921Z,3.46
2022-11-24T05:55:54.349Z,3.45
2022-11-24T05:58:22.026Z,3.39
2022-11-24T06:00:49.425Z,3.31
2022-11-24T06:03:16.900Z,3.45
2022-11-24T06:05:47.113Z,3.55
2022-11-24T06:08:14.989Z,3.56
2022-11-24T06:10:42.390Z,3.50
2022-11-24T06:13:09.820Z,3.51
2022-11-24T06:15:37.807Z,3.55
2022-11-24T06:18:05.325Z,3.45
2022-11-24T06:20:33.232Z,3.50
2022-11-24T06:23:01.320Z,3.50
2022-11-24T06:25:29.382Z,3.64
2022-11-24T06:27:57.001Z,3.64
2022-11-24T06:30:24.397Z,3.69
2022-11-24T06:32:55.584Z,3.68
2022-11-24T06:35:23.042Z,3.66
2022-11-24T06:37:50.398Z,3.67
2022-11-24T06:40:20.457Z,3.74
2022-11-24T06:42:53.693Z,3.72
2022-11-24T06:45:21.140Z,3.73
2022-11-24T06:47:48.553Z,3.70
2022-11-24T06:50:16.442Z,3.61
2022-11-24T06:52:43.951Z,3.71
2022-11-24T06:55:11.379Z,3.69
2022-11-24T06:57:38.806Z,3.93
2022-11-24T07:00:07.938Z,4.63
2022-11-24T07:02:35.519Z,5.04
2022-11-24T07:05:02.952Z,5.11
2022-11-24T07:07:30.965Z,5.38
2022-11-24T07:09:58.478Z,5.13
2022-11-24T07:12:25.780Z,4.93
2022-11-24T07:14:53.156Z,5.22
2022-11-24T07:17:20.585Z,5.52
2022-11-24T07:19:50.476Z,5.41
2022-11-24T07:22:18.357Z,5.27
2022-11-24T07:24:45.764Z,5.31
2022-11-24T07:27:13.403Z,5.11
2022-11-24T07:29:43.710Z,5.11
2022-11-24T07:32:13.771Z,5.05
2022-11-24T07:34:41.184Z,5.09
2022-11-24T07:37:11.333Z,4.99
2022-11-24T07:39:38.722Z,5.03
2022-11-24T07:42:10.490Z,5.19
2022-11-24T07:44:37.940Z,5.32
2022-11-24T07:47:07.052Z,5.15
2022-11-24T07:49:37.424Z,5.15
2022-11-24T07:52:05.186Z,5.11
2022-11-24T07:54:32.866Z,5.23
2022-11-24T07:57:00.496Z,5.23
2022-11-24T07:59:27.815Z,5.24
2022-11-24T08:01:55.209Z,5.15
2022-11-24T08:04:22.833Z,5.17
2022-11-24T08:06:50.640Z,5.17
2022-11-24T08:09:17.992Z,5.27
2022-11-24T08:11:45.413Z,5.23
2022-11-24T08:14:12.820Z,5.29
2022-11-24T08:16:40.227Z,5.28
2022-11-24T08:19:08.414Z,5.31
2022-11-24T08:21:35.829Z,5.29
2022-11-24T08:24:03.509Z,5.27
2022-11-24T08:26:30.926Z,5.21
2022-11-24T08:28:59.641Z,5.11
2022-11-24T08:31:33.590Z,5.12
2022-11-24T08:34:03.748Z,5.20
2022-11-24T08:36:32.053Z,5.38
2022-11-24T08:39:01.016Z,5.55
2022-11-24T08:41:29.582Z,5.60
2022-11-24T08:43:57.522Z,5.75
2022-11-24T08:46:25.108Z,5.80
2022-11-24T08:48:54.515Z,5.86
2022-11-24T08:51:25.043Z,5.96
2022-11-24T08:54:00.729Z,6.08
2022-11-24T08:56:32.966Z,6.16
2022-11-24T08:59:00.649Z,6.31
2022-11-24T09:01:28.735Z,6.35
2022-11-24T09:03:56.630Z,6.51
2022-11-24T09:06:28.358Z,6.62
2022-11-24T09:08:57.884Z,6.69
2022-11-24T09:11:26.161Z,6.99
2022-11-24T09:13:55.100Z,7.04
2022-11-24T09:16:26.034Z,7.17
2022-11-24T09:18:58.950Z,7.22
2022-11-24T09:21:26.721Z,7.35
2022-11-24T09:23:55.135Z,7.41
2022-11-24T09:26:34.403Z,7.61
2022-11-24T09:29:03.821Z,7.79
2022-11-24T09:31:34.506Z,7.89
2022-11-24T09:34:04.463Z,7.91
2022-11-24T09:36:32.177Z,7.94
2022-11-24T09:39:00.607Z,7.99
2022-11-24T09:42:10.717Z,8.09
2022-11-24T09:44:59.754Z,8.15
2022-11-24T09:47:38.977Z,8.23
2022-11-24T09:50:13.880Z,8.37
2022-11-24T09:52:49.696Z,8.40
2022-11-24T09:55:38.506Z,8.36
2022-11-24T09:58:22.721Z,8.47
2022-11-24T10:00:53.191Z,8.66
2022-11-24T10:03:27.540Z,8.81
2022-11-24T10:05:55.513Z,8.87
2022-11-24T10:08:50.054Z,8.96
2022-11-24T10:11:30.929Z,9.00
2022-11-24T10:14:30.642Z,9.19
2022-11-24T10:17:10.363Z,9.22
2022-11-24T10:19:59.701Z,9.32
2022-11-24T10:22:26.958Z,9.55
2022-11-24T10:25:30.782Z,9.56
2022-11-24T10:28:03.702Z,9.63
2022-11-24T10:30:31.308Z,9.66
2022-11-24T10:33:03.581Z,9.70
2022-11-24T10:35:49.552Z,9.75
2022-11-24T10:38:22.949Z,9.84
2022-11-24T10:40:59.468Z,9.80
2022-11-24T10:43:28.320Z,9.86
2022-11-24T10:46:05.537Z,9.82
2022-11-24T10:48:40.684Z,9.92
2022-11-24T10:51:40.454Z,9.89
2022-11-24T10:54:19.346Z,10.00
2022-11-24T10:56:48.556Z,10.19
2022-11-24T10:59:27.666Z,10.18
2022-11-24T11:01:55.644Z,10.19
2022-11-24T11:04:27.291Z,10.22
2022-11-24T11:07:21.625Z,10.24
2022-11-24T11:09:49.901Z,10.31
2022-11-24T11:12:44.080Z,10.27
2022-11-24T11:15:31.197Z,10.28
2022-11-24T11:18:00.352Z,10.38
2022-11-24T11:20:29.554Z,10.43
2022-11-24T11:22:58.899Z,10.48
2022-11-24T11:25:33.255Z,10.59
2022-11-24T11:28:29.843Z,10.59
2022-11-24T11:31:16.491Z,10.66
2022-11-24T11:34:05.460Z,10.73
2022-11-24T11:36:47.689Z,10.77
2022-11-24T11:39:34.879Z,10.84
2022-11-24T11:45:26.663Z,10.90
2022-11-24T11:48:03.253Z,10.92
2022-11-24T11:51:23.025Z,11.04
2022-11-24T11:53:48.329Z,11.20
2022-11-24T11:56:28.258Z,11.23
2022-11-24T11:59:06.541Z,11.41
2022-11-24T12:01:39.941Z,11.33
2022-11-24T12:04:44.437Z,11.39
2022-11-24T12:07:27.004Z,11.47
2022-11-24T12:10:16.719Z,11.40
2022-11-24T12:13:04.768Z,11.36
2022-11-24T12:15:41.738Z,11.32
2022-11-24T12:19:03.043Z,11.21
2022-11-24T12:21:52.152Z,11.20
2022-11-24T12:25:14.105Z,11.20
2022-11-24T12:28:06.774Z,11.23
2022-11-24T12:31:01.311Z,11.21
2022-11-24T12:33:51.594Z,11.24
2022-11-24T12:36:35.805Z,11.29
2022-11-24T12:39:13.528Z,11.14
2022-11-24T12:42:00.210Z,11.08
2022-11-24T12:45:06.175Z,11.16
2022-11-24T12:47:46.417Z,11.09
2022-11-24T12:50:18.597Z,11.00
2022-11-24T12:52:58.636Z,11.03
2022-11-24T12:55:28.775Z,10.98
2022-11-24T12:58:07.806Z,10.96
2022-11-24T13:00:53.428Z,10.92
2022-11-24T13:03:39.316Z,10.90
2022-11-24T13:06:11.200Z,10.96
2022-11-24T13:08:38.967Z,10.91
2022-11-24T13:11:27.504Z,10.85
2022-11-24T13:14:23.656Z,10.87
2022-11-24T13:19:42.572Z,10.84
2022-11-24T13:22:27.033Z,10.82
2022-11-24T13:25:14.540Z,10.84
2022-11-24T13:27:44.423Z,10.84
2022-11-24T13:30:33.859Z,10.82
2022-11-24T13:33:16.913Z,10.83
2022-11-24T13:36:02.925Z,10.82
2022-11-24T13:38:45.262Z,10.83
2022-11-24T13:41:51.283Z,10.77
2022-11-24T13:44:24.315Z,10.75
2022-11-24T13:47:06.121Z,10.78
2022-11-24T13:49:46.474Z,10.79
2022-11-24T13:52:35.908Z,10.89
2022-11-24T13:55:32.597Z,10.97
2022-11-24T13:58:18.293Z,10.94
2022-11-24T14:01:11.557Z,10.91
2022-11-24T14:04:07.131Z,10.88
2022-11-24T14:06:42.962Z,10.83
2022-11-24T14:09:19.289Z,10.89
2022-11-24T14:12:05.165Z,10.91
2022-11-24T14:14:32.914Z,10.84
2022-11-24T14:17:16.035Z,10.86
2022-11-24T14:19:45.593Z,10.85
2022-11-24T14:22:20.140Z,10.81
2022-11-24T14:24:53.479Z,10.75
2022-11-24T14:27:26.704Z,10.76
2022-11-24T14:30:03.527Z,10.67
2022-11-24T14:32:31.624Z,10.65
2022-11-24T14:34:59.078Z,10.57
2022-11-24T14:37:26.777Z,10.54
2022-11-24T14:39:54.257Z,10.52
2022-11-24T14:42:25.030Z,10.47
2022-11-24T14:44:58.725Z,10.44
2022-11-24T14:47:32.730Z,10.43
2022-11-24T14:50:16.361Z,10.38
2022-11-24T14:52:47.292Z,10.34
2022-11-24T14:55:25.538Z,10.34
2022-11-24T14:57:52.930Z,10.29
2022-11-24T15:00:26.999Z,10.22
2022-11-24T15:03:07.810Z,10.18
2022-11-24T15:05:54.284Z,10.09
2022-11-24T15:08:23.881Z,10.03
2022-11-24T15:10:58.048Z,9.97
2022-11-24T15:13:26.119Z,9.86
2022-11-24T15:16:01.984Z,9.82
2022-11-24T15:18:48.179Z,9.75
2022-11-24T15:21:19.346Z,9.74
2022-11-24T15:24:16.134Z,9.72
2022-11-24T15:26:44.868Z,9.71
2022-11-24T15:29:12.585Z,9.69
2022-11-24T15:31:41.326Z,9.65
2022-11-24T15:34:13.619Z,9.57
2022-11-24T15:36:41.062Z,9.52
2022-11-24T15:39:08.386Z,9.45
2022-11-24T15:41:35.734Z,9.37
2022-11-24T15:44:03.175Z,9.30
2022-11-24T15:46:37.796Z,9.25
2022-11-24T15:49:06.197Z,9.18
2022-11-24T15:51:35.507Z,9.14
2022-11-24T15:54:02.865Z,9.09
2022-11-24T15:56:35.220Z,8.98
2022-11-24T15:59:04.276Z,8.97
2022-11-24T16:01:37.000Z,8.95
2022-11-24T16:04:04.762Z,8.94
2022-11-24T16:06:32.229Z,8.84
2022-11-24T16:09:00.105Z,8.77
2022-11-24T16:11:27.478Z,8.76
2022-11-24T16:13:54.858Z,8.72
2022-11-24T16:16:24.679Z,8.61
2022-11-24T16:18:52.705Z,8.57
2022-11-24T16:21:20.018Z,8.48
2022-11-24T16:23:48.690Z,8.47
2022-11-24T16:26:16.323Z,8.46
2022-11-24T16:28:46.480Z,8.34
2022-11-24T16:31:16.055Z,8.35
2022-11-24T16:33:46.428Z,8.32
2022-11-24T16:36:14.336Z,8.29
2022-11-24T16:38:41.844Z,8.25
2022-11-24T16:41:10.408Z,8.24
2022-11-24T16:43:40.897Z,8.29
2022-11-24T16:46:17.341Z,8.31
2022-11-24T16:48:46.845Z,8.21
2022-11-24T16:51:18.590Z,8.07
2022-11-24T16:53:46.165Z,8.10
2022-11-24T16:56:14.827Z,8.16
2022-11-24T16:58:42.625Z,8.09
2022-11-24T17:01:12.737Z,8.01
2022-11-24T17:03:41.142Z,7.89
2022-11-24T17:06:11.533Z,7.79
2022-11-24T17:08:40.620Z,7.71
2022-11-24T17:11:11.014Z,7.57
2022-11-24T17:13:38.997Z,7.40
2022-11-24T17:16:12.521Z,7.39
2022-11-24T17:18:40.204Z,7.31
2022-11-24T17:21:13.774Z,7.31
2022-11-24T17:23:41.456Z,7.30
2022-11-24T17:26:12.071Z,7.31
2022-11-24T17:28:40.762Z,7.25
2022-11-24T17:31:08.208Z,7.23
2022-11-24T17:33:38.868Z,7.23
2022-11-24T17:36:06.854Z,7.23
2022-11-24T17:38:35.168Z,7.22
2022-11-24T17:41:02.998Z,7.22
2022-11-24T17:43:30.531Z,7.28
2022-11-24T17:46:00.988Z,7.34
2022-11-24T17:48:28.985Z,7.21
2022-11-24T17:51:07.982Z,7.22
2022-11-24T17:53:37.641Z,7.20
2022-11-24T17:56:08.835Z,7.18
2022-11-24T17:58:42.744Z,7.17
2022-11-24T18:01:14.704Z,7.21
2022-11-24T18:03:43.364Z,7.26
2022-11-24T18:06:12.569Z,7.28
2022-11-24T18:08:42.574Z,7.29
2022-11-24T18:11:13.026Z,7.22
2022-11-24T18:14:00.956Z,7.15
2022-11-24T18:16:31.086Z,7.06
2022-11-24T18:19:09.910Z,6.99
2022-11-24T18:21:40.063Z,7.00
2022-11-24T18:24:10.106Z,7.07
2022-11-24T18:26:39.106Z,7.09
2022-11-24T18:29:06.753Z,7.06
2022-11-24T18:31:37.471Z,6.99
2022-11-24T18:34:06.062Z,6.95
2022-11-24T18:36:34.948Z,6.96
2022-11-24T18:39:04.706Z,6.89
2022-11-24T18:41:32.528Z,6.81
2022-11-24T18:44:02.956Z,6.73
2022-11-24T18:46:30.318Z,6.79
2022-11-24T18:48:57.725Z,6.72
2022-11-24T18:51:25.250Z,6.64
2022-11-24T18:54:00.039Z,6.51
2022-11-24T18:56:27.639Z,6.53
2022-11-24T18:58:56.598Z,6.56
2022-11-24T19:01:26.693Z,6.64
2022-11-24T19:03:56.437Z,6.63
2022-11-24T19:06:32.834Z,6.53
2022-11-24T19:09:11.807Z,6.53
2022-11-24T19:11:40.802Z,6.54
2022-11-24T19:14:11.099Z,6.51
2022-11-24T19:16:39.391Z,6.41
2022-11-24T19:19:07.061Z,6.33
2022-11-24T19:21:37.259Z,6.29
2022-11-24T19:24:06.544Z,6.32
2022-11-24T19:26:37.149Z,6.38
2022-11-24T19:29:06.117Z,6.40
2022-11-24T19:31:34.803Z,6.39
2022-11-24T19:34:03.593Z,6.31
2022-11-24T19:36:31.538Z,6.28
2022-11-24T19:38:59.608Z,6.33
2022-11-24T19:41:29.653Z,6.32
2022-11-24T19:43:58.485Z,6.32
2022-11-24T19:46:27.758Z,6.31
2022-11-24T19:48:57.309Z,6.29
2022-11-24T19:51:27.641Z,6.32
2022-11-24T19:53:55.037Z,6.30
2022-11-24T19:56:28.037Z,6.28
2022-11-24T19:58:56.026Z,6.22
2022-11-24T20:01:26.222Z,6.19
2022-11-24T20:03:58.898Z,6.20
2022-11-24T20:06:28.743Z,6.17
2022-11-24T20:08:58.632Z,6.14
2022-11-24T20:11:27.604Z,6.18
2022-11-24T20:13:55.604Z,6.21
2022-11-24T20:16:29.777Z,6.17
2022-11-24T20:19:05.721Z,6.17
2022-11-24T20:21:36.425Z,6.15
2022-11-24T20:24:16.160Z,6.16
2022-11-24T20:26:46.869Z,6.10
2022-11-24T20:29:15.152Z,6.08
2022-11-24T20:31:45.494Z,6.07
2022-11-24T20:34:13.780Z,6.12
2022-11-24T20:36:45.809Z,6.18
2022-11-24T20:39:25.452Z,6.20
2022-11-24T20:41:54.418Z,6.18
2022-11-24T20:44:23.055Z,6.10
2022-11-24T20:46:50.794Z,6.11
2022-11-24T20:49:21.848Z,6.20
2022-11-24T20:51:54.269Z,6.19
2022-11-24T20:54:25.078Z,6.12
2022-11-24T20:56:53.630Z,6.10
2022-11-24T20:59:25.842Z,6.09
2022-11-24T21:01:57.819Z,6.07
2022-11-24T21:04:27.059Z,6.04
2022-11-24T21:06:58.620Z,6.00
2022-11-24T21:09:28.252Z,5.93
2022-11-24T21:11:55.577Z,5.89
2022-11-24T21:14:25.922Z,5.88
2022-11-24T21:16:53.368Z,5.79
2022-11-24T21:19:21.233Z,5.68
2022-11-24T21:21:48.886Z,5.68
2022-11-24T21:24:18.975Z,5.71
2022-11-24T21:26:47.844Z,5.60
2022-11-24T21:29:22.290Z,5.63
2022-11-24T21:31:49.776Z,5.58
2022-11-24T21:34:18.630Z,5.61
2022-11-24T21:36:46.597Z,5.69
2022-11-24T21:39:14.972Z,5.69
2022-11-24T21:41:43.520Z,5.67
2022-11-24T21:44:12.861Z,5.65
2022-11-24T21:46:45.691Z,5.66
2022-11-24T21:49:16.861Z,5.76
2022-11-24T21:51:44.175Z,5.82
2022-11-24T21:54:11.497Z,5.91
2022-11-24T21:56:38.856Z,5.97
2022-11-24T21:59:06.166Z,6.15
2022-11-24T22:01:33.583Z,6.09
2022-11-24T22:04:01.113Z,6.12
2022-11-24T22:06:28.541Z,6.09
2022-11-24T22:08:57.817Z,6.07
2022-11-24T22:11:28.473Z,6.05
2022-11-24T22:13:56.041Z,5.97
2022-11-24T22:16:27.091Z,6.00
2022-11-24T22:18:54.668Z,5.97
2022-11-24T22:21:24.400Z,6.01
2022-11-24T22:23:55.185Z,5.99
2022-11-24T22:26:23.943Z,6.02
2022-11-24T22:28:52.064Z,6.00
2022-11-24T22:31:21.683Z,5.93
2022-11-24T22:33:50.274Z,6.04
2022-11-24T22:36:20.940Z,6.01
2022-11-24T22:38:53.705Z,6.02
2022-11-24T22:41:21.427Z,6.02
2022-11-24T22:43:49.240Z,5.99
2022-11-24T22:46:24.928Z,5.93
2022-11-24T22:48:53.702Z,5.96
2022-11-24T22:51:26.812Z,5.94
2022-11-24T22:53:56.758Z,5.92
2022-11-24T22:56:24.530Z,5.88
2022-11-24T22:58:51.924Z,5.81
2022-11-24T23:01:21.586Z,5.79
2022-11-24T23:03:49.941Z,5.82
2022-11-24T23:06:24.806Z,5.85
2022-11-24T23:08:53.148Z,5.85
2022-11-24T23:11:29.061Z,5.85
2022-11-24T23:14:02.300Z,5.83
2022-11-24T23:16:31.817Z,5.79
2022-11-24T23:18:59.411Z,5.76
2022-11-24T23:21:29.369Z,5.78
2022-11-24T23:23:59.033Z,5.79
2022-11-24T23:26:31.841Z,5.77
2022-11-24T23:28:59.319Z,5.75
2022-11-24T23:31:28.870Z,5.74
2022-11-24T23:34:01.566Z,5.72
2022-11-24T23:36:29.922Z,5.64
2022-11-24T23:39:05.206Z,5.55
2022-11-24T23:41:32.897Z,5.52
2022-11-24T23:44:00.325Z,5.56
2022-11-24T23:46:28.308Z,5.65
2022-11-24T23:48:55.777Z,5.65
2022-11-24T23:51:31.533Z,5.66
2022-11-24T23:54:00.210Z,5.64
2022-11-24T23:56:32.550Z,5.63
2022-11-24T23:59:01.686Z,5.60
